Seafalcon — 9HA2814 — position and weather

sailwx.info

Track history (hours):
 
Tides and Currents Weather Stations Pressure Air Temp Water Temp Dewpoint Dewpoint Depression Visibility Wind Speed Wind Dir Waves Ship Positions

Seafalcon

Last reported at 2017-Aug-25 14:23 UTC. Time now 2017-Sep-26 02:21 UTC.
Position N 01°14' E 103°57'.
Warning: this ship's position is 31 days out of date.

Length 250 m; draft 13.3 m.

Type: Ship (hazmat cat A). MMSI: 256078000.

Date/timePositionNaut miles runAvg speedWind from/ knotsBaromVisibWave heightAir tempDewpointWater temp
2017-Aug-25 14:23N 01°14' E 103°57'1011.7
2017-Aug-25 13:30N 01°09' E 103°48'612.7
2017-Aug-25 13:00N 01°05' E 103°43'510.6
2017-Aug-25 12:30N 01°03' E 103°38'510.9
2017-Aug-25 12:00N 01°06' E 103°33'611.3
2017-Aug-25 11:30N 01°11' E 103°31'5 9.7
2017-Aug-25 11:00N 01°15' E 103°28'2 4.5
2017-Aug-25 10:30N 01°16' E 103°26'1 1.6
2017-Aug-25 09:55N 01°15' E 103°26'1 2.2
2017-Aug-25 09:22N 01°15' E 103°27'1 3.2
2017-Aug-25 08:58N 01°15' E 103°28'3 5.6
2017-Aug-25 08:27N 01°14' E 103°31'2 4.9
2017-Aug-25 08:00N 01°16' E 103°33'5 9.7
2017-Aug-25 07:30N 01°21' E 103°33'1 0.0
2017-Aug-23 06:37N 01°21' E 103°32'0 0.0
2017-Aug-23 06:20N 01°21' E 103°32'0 0.0
2017-Aug-23 05:55N 01°21' E 103°32'0 0.7
2017-Aug-23 05:30N 01°21' E 103°33'2 4.7
2017-Aug-23 05:01N 01°19' E 103°33'5 9.5
2017-Aug-23 04:30N 01°14' E 103°32'2 3.1
2017-Aug-23 03:59N 01°14' E 103°30'2 0.8
2017-Aug-23 01:26N 01°15' E 103°28'0 0.3
2017-Aug-23 00:59N 01°15' E 103°28'0 0.0
2017-Aug-23 00:29N 01°15' E 103°28'0 0.0
2017-Aug-22 23:59N 01°15' E 103°28'0 0.0
2017-Aug-22 23:26N 01°15' E 103°28'0 0.0
2017-Aug-22 22:53N 01°15' E 103°28'0 0.0
2017-Aug-22 22:26N 01°15' E 103°28'0 0.0
2017-Aug-22 21:50N 01°15' E 103°28'0 0.0
2017-Aug-22 21:29N 01°15' E 103°28'0 0.0
2017-Aug-22 20:59N 01°15' E 103°28'0 0.0
2017-Aug-22 20:20N 01°15' E 103°28'0 0.0
2017-Aug-22 19:44N 01°15' E 103°28'0 0.0
2017-Aug-22 19:26N 01°15' E 103°28'0 0.0
2017-Aug-22 18:53N 01°15' E 103°28'0 0.4
2017-Aug-22 18:17N 01°15' E 103°29'1 2.7
2017-Aug-22 17:59N 01°15' E 103°29'3 5.6
2017-Aug-22 17:31N 01°14' E 103°32'5 9.6
2017-Aug-22 17:00N 01°19' E 103°33'2 4.3
2017-Aug-22 16:29N 01°21' E 103°33'0 0.0
2017-Aug-22 16:00N 01°21' E 103°33'0 0.1
2017-Aug-22 15:30N 01°21' E 103°33'0 0.1
2017-Aug-22 15:00N 01°21' E 103°33'0 0.1
2017-Aug-22 14:30N 01°21' E 103°33'0 0.1
2017-Aug-22 14:00N 01°21' E 103°33'0 0.1
2017-Aug-22 13:31N 01°21' E 103°33'0 0.0
2017-Aug-22 13:01N 01°21' E 103°33'0 0.1
2017-Aug-22 12:31N 01°21' E 103°33'0 0.0
2017-Aug-22 12:01N 01°21' E 103°33'0 0.0
2017-Aug-22 11:30N 01°21' E 103°33'0 0.1
2017-Aug-22 10:59N 01°21' E 103°33'0 0.1
2017-Aug-22 10:30N 01°21' E 103°33'0 0.1
2017-Aug-22 09:59N 01°21' E 103°33'0 0.1
2017-Aug-22 09:30N 01°21' E 103°33'0 0.0
2017-Aug-22 09:01N 01°21' E 103°33'0 0.0
2017-Aug-22 08:30N 01°21' E 103°33'0 0.0
2017-Aug-22 07:59N 01°21' E 103°33'0 0.1
2017-Aug-22 07:30N 01°21' E 103°33'0 0.1
2017-Aug-22 06:49N 01°21' E 103°33'0 0.2
2017-Aug-22 06:29N 01°21' E 103°33'0 0.0
2017-Aug-22 05:59N 01°21' E 103°33'0 0.0
2017-Aug-22 05:30N 01°21' E 103°33'0 0.0
2017-Aug-22 04:59N 01°21' E 103°33'0 0.1
2017-Aug-22 04:29N 01°21' E 103°33'0 0.1
2017-Aug-22 03:59N 01°21' E 103°33'0 0.0
2017-Aug-22 03:30N 01°21' E 103°33'0 0.0
2017-Aug-22 02:58N 01°21' E 103°33'0 0.0
2017-Aug-22 02:30N 01°21' E 103°33'0 0.1
2017-Aug-22 01:58N 01°21' E 103°33'0 0.1
2017-Aug-22 01:25N 01°21' E 103°33'0 0.0
2017-Aug-22 01:00N 01°21' E 103°33'0 0.1
2017-Aug-22 00:26N 01°21' E 103°33'0 0.0
2017-Aug-22 00:00N 01°21' E 103°33'0 0.1
2017-Aug-21 23:31N 01°21' E 103°33'0 0.0
2017-Aug-21 22:59N 01°21' E 103°33'0 0.0
2017-Aug-21 22:26N 01°21' E 103°33'0 0.1
2017-Aug-21 21:56N 01°21' E 103°33'0 0.0
2017-Aug-21 21:25N 01°21' E 103°33'0 0.1
2017-Aug-21 20:59N 01°21' E 103°33'0 0.0
2017-Aug-21 20:30N 01°21' E 103°33'0 0.1
2017-Aug-21 19:57N 01°21' E 103°33'0 0.1
2017-Aug-21 19:30N 01°21' E 103°33'0 0.0
2017-Aug-21 18:55N 01°21' E 103°33'0 0.0
2017-Aug-21 18:30N 01°21' E 103°33'0 0.0
2017-Aug-21 17:58N 01°21' E 103°33'0 0.0
2017-Aug-21 17:30N 01°21' E 103°33'0 0.0
2017-Aug-21 16:59N 01°21' E 103°33'0 0.0
2017-Aug-21 16:30N 01°21' E 103°33'0 0.0
2017-Aug-21 15:58N 01°21' E 103°33'0 0.1
2017-Aug-21 15:27N 01°21' E 103°33'0 0.0
2017-Aug-21 15:01N 01°21' E 103°33'0 0.0
2017-Aug-21 14:29N 01°21' E 103°33'0 0.0
2017-Aug-21 13:59N 01°21' E 103°33'0 0.1
2017-Aug-21 13:31N 01°21' E 103°33'0 0.0
2017-Aug-21 12:58N 01°21' E 103°33'0 0.0
2017-Aug-21 12:28N 01°21' E 103°33'0 0.0
2017-Aug-21 11:58N 01°21' E 103°33'0 0.0
2017-Aug-21 11:28N 01°21' E 103°33'0 0.0
2017-Aug-21 10:58N 01°21' E 103°33'0 0.0
2017-Aug-21 10:23N 01°21' E 103°33'0 0.0
2017-Aug-21 09:57N 01°21' E 103°33'0 0.0
2017-Aug-21 09:30N 01°21' E 103°33'0 0.0
2017-Aug-21 08:58N 01°21' E 103°33'0 0.0
2017-Aug-21 08:30N 01°21' E 103°33'0 0.0
2017-Aug-21 07:57N 01°21' E 103°33'0 0.0
2017-Aug-21 07:30N 01°21' E 103°33'0 0.0
2017-Aug-21 07:01N 01°21' E 103°33'0 0.1
2017-Aug-21 06:21N 01°21' E 103°33'0 0.0
2017-Aug-21 05:56N 01°21' E 103°33'0 0.1
2017-Aug-21 05:28N 01°21' E 103°33'0 0.1
2017-Aug-21 04:59N 01°21' E 103°33'0 0.1
2017-Aug-21 04:29N 01°21' E 103°33'0 0.1
2017-Aug-21 04:00N 01°21' E 103°33'0 0.1
2017-Aug-21 03:31N 01°21' E 103°33'0 0.0
2017-Aug-21 03:01N 01°21' E 103°33'0 0.0
2017-Aug-21 02:30N 01°21' E 103°33'0 0.0
2017-Aug-21 01:57N 01°21' E 103°33'0 0.0
2017-Aug-21 01:29N 01°21' E 103°33'0 0.0
2017-Aug-21 00:55N 01°21' E 103°33'0 0.0
2017-Aug-21 00:30N 01°21' E 103°33'0 0.0
2017-Aug-21 00:01N 01°21' E 103°33'0 0.0
2017-Aug-20 23:30N 01°21' E 103°33'0 0.0
2017-Aug-20 22:59N 01°21' E 103°33'0 0.0
2017-Aug-20 22:31N 01°21' E 103°33'0 0.0
2017-Aug-20 22:01N 01°21' E 103°33'0 0.0
2017-Aug-20 21:30N 01°21' E 103°33'0 0.0
2017-Aug-20 21:00N 01°21' E 103°33'1 1.5
2017-Aug-20 20:31N 01°20' E 103°33'4 8.7
2017-Aug-20 19:59N 01°16' E 103°33'1 2.6
2017-Aug-20 19:30N 01°15' E 103°33'1 2.2
2017-Aug-20 19:00N 01°15' E 103°35'0 0.0
2017-Aug-20 18:30N 01°15' E 103°35'0 0.0
2017-Aug-20 17:03N 01°15' E 103°35'0 0.0
2017-Aug-20 16:51N 01°15' E 103°35'0 0.1
2017-Aug-20 13:03N 01°15' E 103°35'0 0.1
2017-Aug-20 13:00N 01°15' E 103°35'0 0.1
2017-Aug-20 12:30N 01°15' E 103°35'0 0.1
2017-Aug-20 11:39N 01°15' E 103°35'0 0.0
2017-Aug-20 11:30N 01°15' E 103°35'0 0.1
2017-Aug-20 10:36N 01°15' E 103°35'0 0.2
2017-Aug-20 10:12N 01°15' E 103°35'0 0.0
2017-Aug-20 10:00N 01°15' E 103°35'0 0.1
2017-Aug-20 09:27N 01°15' E 103°34'0 0.0
2017-Aug-20 08:48N 01°15' E 103°34'0 0.0
2017-Aug-20 08:27N 01°15' E 103°34'0 0.1
2017-Aug-20 08:01N 01°15' E 103°34'0 0.0
2017-Aug-20 07:30N 01°15' E 103°34'0 0.1
2017-Aug-20 06:57N 01°15' E 103°34'0 0.0
2017-Aug-20 06:30N 01°15' E 103°34'0 0.0
2017-Aug-20 05:57N 01°15' E 103°34'0 0.1
2017-Aug-20 05:21N 01°15' E 103°34'0 0.1
2017-Aug-20 05:00N 01°15' E 103°34'0 0.2
2017-Aug-20 04:27N 01°15' E 103°35'0 0.1
2017-Aug-20 03:57N 01°15' E 103°35'0 0.0
2017-Aug-20 03:30N 01°15' E 103°35'0 0.1
2017-Aug-20 02:36N 01°15' E 103°35'0 0.0
2017-Aug-20 00:48N 01°15' E 103°35'0 0.1
2017-Aug-20 00:24N 01°15' E 103°35'0 0.1
2017-Aug-19 23:54N 01°15' E 103°35'0 0.2
2017-Aug-19 23:30N 01°15' E 103°35'0 0.1
2017-Aug-19 22:57N 01°15' E 103°35'0 0.2
2017-Aug-19 22:30N 01°15' E 103°34'0 0.2
2017-Aug-19 21:57N 01°15' E 103°34'0 0.1
2017-Aug-19 21:12N 01°15' E 103°34'0 0.1
2017-Aug-19 20:57N 01°15' E 103°34'0 0.2
2017-Aug-19 20:30N 01°15' E 103°34'0 0.1
2017-Aug-19 20:00N 01°15' E 103°35'0 0.1
2017-Aug-19 19:15N 01°15' E 103°35'0 0.0
2017-Aug-19 18:57N 01°15' E 103°35'0 0.0
2017-Aug-19 18:03N 01°15' E 103°35'0 0.0
2017-Aug-19 17:51N 01°15' E 103°35'0 0.0
2017-Aug-19 17:30N 01°15' E 103°35'0 0.0
2017-Aug-19 17:00N 01°15' E 103°35'0 0.0
2017-Aug-19 16:03N 01°15' E 103°35'0 0.0
2017-Aug-19 15:57N 01°15' E 103°35'0 0.2
2017-Aug-19 15:15N 01°15' E 103°35'0 0.1
2017-Aug-19 13:00N 01°15' E 103°35'0 0.0
2017-Aug-19 12:27N 01°15' E 103°35'0 0.1
2017-Aug-19 11:48N 01°15' E 103°35'0 0.0
2017-Aug-19 11:27N 01°15' E 103°35'0 0.0
2017-Aug-19 11:00N 01°15' E 103°35'0 0.0
2017-Aug-19 10:24N 01°15' E 103°35'0 0.0
2017-Aug-19 09:57N 01°15' E 103°35'0 0.1
2017-Aug-19 09:27N 01°15' E 103°35'0 0.1
2017-Aug-19 09:00N 01°15' E 103°35'0 0.1
2017-Aug-19 08:27N 01°15' E 103°34'0 0.0
2017-Aug-19 07:48N 01°15' E 103°34'0 0.0
2017-Aug-19 07:27N 01°15' E 103°34'0 0.1
2017-Aug-19 06:45N 01°15' E 103°34'0 0.0
2017-Aug-19 06:30N 01°15' E 103°34'0 0.0
2017-Aug-19 05:57N 01°15' E 103°34'0 0.0
2017-Aug-19 05:30N 01°15' E 103°34'0 0.0
2017-Aug-19 05:00N 01°15' E 103°34'0 0.0
2017-Aug-19 04:27N 01°15' E 103°34'0 0.0
2017-Aug-19 04:00N 01°15' E 103°34'0 0.1
2017-Aug-19 03:30N 01°15' E 103°34'0 0.2
2017-Aug-19 02:54N 01°15' E 103°35'0 0.2
2017-Aug-19 02:30N 01°15' E 103°35'0 0.1
2017-Aug-19 02:00N 01°15' E 103°35'0 0.1
2017-Aug-19 01:27N 01°15' E 103°35'0 0.1
2017-Aug-19 00:45N 01°15' E 103°35'0 0.0
2017-Aug-19 00:21N 01°15' E 103°35'0 0.2
2017-Aug-19 00:00N 01°15' E 103°35'0 0.0
2017-Aug-18 23:27N 01°15' E 103°35'0 0.1
2017-Aug-18 23:00N 01°15' E 103°35'0 0.1
2017-Aug-18 22:21N 01°15' E 103°35'0 0.0
2017-Aug-18 21:57N 01°15' E 103°35'0 0.1
2017-Aug-18 21:27N 01°15' E 103°34'0 0.0
2017-Aug-18 20:57N 01°15' E 103°34'0 0.0
2017-Aug-18 20:30N 01°15' E 103°34'0 0.0
2017-Aug-18 19:36N 01°15' E 103°34'0 0.1
2017-Aug-18 19:18N 01°15' E 103°34'0 0.2
2017-Aug-18 18:45N 01°15' E 103°34'0 0.3
2017-Aug-18 18:30N 01°15' E 103°34'0 0.1
2017-Aug-18 17:57N 01°15' E 103°34'0 0.1
2017-Aug-18 17:30N 01°15' E 103°34'0 0.1
2017-Aug-18 16:54N 01°15' E 103°35'0 0.0
2017-Aug-18 16:27N 01°15' E 103°35'0 0.1
2017-Aug-18 15:51N 01°15' E 103°35'0 0.1
2017-Aug-18 15:30N 01°15' E 103°35'0 0.1
2017-Aug-18 10:06N 01°15' E 103°35'0 0.0
2017-Aug-18 09:45N 01°15' E 103°35'0 0.0
2017-Aug-18 09:27N 01°15' E 103°35'0 0.0
2017-Aug-18 08:51N 01°15' E 103°35'0 0.1
2017-Aug-18 08:24N 01°15' E 103°35'0 0.1
2017-Aug-18 07:33N 01°15' E 103°35'0 0.1
2017-Aug-18 06:21N 01°15' E 103°34'0 0.1
2017-Aug-18 05:51N 01°15' E 103°34'0 0.0
2017-Aug-18 05:18N 01°15' E 103°34'0 0.0
2017-Aug-18 04:57N 01°15' E 103°34'0 0.0
2017-Aug-18 04:30N 01°15' E 103°34'0 0.0
2017-Aug-18 03:57N 01°15' E 103°34'0 0.1
2017-Aug-17 23:27N 01°15' E 103°34'0 0.2
2017-Aug-17 22:57N 01°15' E 103°34'0 0.1
2017-Aug-17 22:06N 01°15' E 103°34'0 0.0
2017-Aug-17 21:54N 01°15' E 103°34'0 0.0
2017-Aug-17 21:27N 01°15' E 103°34'0 0.1
2017-Aug-17 20:57N 01°15' E 103°34'0 0.1
2017-Aug-17 20:27N 01°15' E 103°34'0 0.0
2017-Aug-17 19:57N 01°15' E 103°34'0 0.1
2017-Aug-17 19:27N 01°15' E 103°34'0 0.0
2017-Aug-17 18:57N 01°15' E 103°34'0 0.2
2017-Aug-17 18:27N 01°15' E 103°34'0 0.0
2017-Aug-17 17:54N 01°15' E 103°34'0 0.1
2017-Aug-17 17:27N 01°15' E 103°34'1 2.7
2017-Aug-17 17:00N 01°13' E 103°34'3 6.0
2017-Aug-17 16:30N 01°12' E 103°37'510.9
2017-Aug-17 16:00N 01°10' E 103°42'4 8.7
2017-Aug-17 15:30N 01°09' E 103°46'4 8.9
2017-Aug-17 15:00N 01°11' E 103°50'3 6.6
2017-Aug-17 14:30N 01°13' E 103°53'3 5.2
2017-Aug-17 14:00N 01°15' E 103°55'0 0.3
2017-Aug-17 13:16N 01°15' E 103°55'0 0.0
2017-Aug-17 12:58N 01°15' E 103°55'0 0.0
2017-Aug-17 12:28N 01°15' E 103°55'0 0.0
2017-Aug-17 11:58N 01°15' E 103°55'0 0.0
2017-Aug-17 11:25N 01°15' E 103°55'0 0.1
2017-Aug-17 10:46N 01°15' E 103°55'0 0.2
2017-Aug-17 10:22N 01°15' E 103°55'0 0.1
2017-Aug-17 09:55N 01°15' E 103°55'0 0.2
2017-Aug-17 09:25N 01°15' E 103°55'0 0.0
2017-Aug-17 08:55N 01°15' E 103°55'0 0.0
2017-Aug-17 08:19N 01°15' E 103°55'0 0.0
2017-Aug-17 05:55N 01°15' E 103°55'0 0.1
2017-Aug-17 04:32N 01°15' E 103°54'0 0.4
2017-Aug-17 04:30N 01°15' E 103°54'2 2.9
2017-Aug-17 03:59N 01°15' E 103°56'3 5.1
2017-Aug-17 03:28N 01°15' E 103°59'2 5.0
2017-Aug-17 03:00N 01°14' E 103°57'4 8.9
2017-Aug-17 02:30N 01°12' E 103°53'5 9.5
2017-Aug-17 02:00N 01°10' E 103°49'4 8.3
2017-Aug-17 01:30N 01°07' E 103°45'4 8.5
2017-Aug-17 01:00N 01°04' E 103°42'4 8.2
2017-Aug-17 00:30N 01°03' E 103°38'510.0
2017-Aug-17 00:00N 01°05' E 103°34'510.2
2017-Aug-16 23:28N 01°08' E 103°30'611.9
2017-Aug-16 23:00N 01°12' E 103°25'  
Track history (hours):
 
Tides and Currents Weather Stations Pressure Air Temp Water Temp Dewpoint Dewpoint Depression Visibility Wind Speed Wind Dir Waves Ship Positions

Seafalcon

Last reported at 2017-Aug-25 14:23 UTC. Time now 2017-Sep-26 02:21 UTC.
Position N 01°14' E 103°57'.
Warning: this ship's position is 31 days out of date.

Length 250 m; draft 13.3 m.

Type: Ship (hazmat cat A). MMSI: 256078000.

Date/timePositionNaut miles runAvg speedWind from/ knotsBaromVisibWave heightAir tempDewpointWater temp
2017-Aug-25 14:23N 01°14' E 103°57'1011.7
2017-Aug-25 13:30N 01°09' E 103°48'612.7
2017-Aug-25 13:00N 01°05' E 103°43'510.6
2017-Aug-25 12:30N 01°03' E 103°38'510.9
2017-Aug-25 12:00N 01°06' E 103°33'611.3
2017-Aug-25 11:30N 01°11' E 103°31'5 9.7
2017-Aug-25 11:00N 01°15' E 103°28'2 4.5
2017-Aug-25 10:30N 01°16' E 103°26'1 1.6
2017-Aug-25 09:55N 01°15' E 103°26'1 2.2
2017-Aug-25 09:22N 01°15' E 103°27'1 3.2
2017-Aug-25 08:58N 01°15' E 103°28'3 5.6
2017-Aug-25 08:27N 01°14' E 103°31'2 4.9
2017-Aug-25 08:00N 01°16' E 103°33'5 9.7
2017-Aug-25 07:30N 01°21' E 103°33'1 0.0
2017-Aug-23 06:37N 01°21' E 103°32'0 0.0
2017-Aug-23 06:20N 01°21' E 103°32'0 0.0
2017-Aug-23 05:55N 01°21' E 103°32'0 0.7
2017-Aug-23 05:30N 01°21' E 103°33'2 4.7
2017-Aug-23 05:01N 01°19' E 103°33'5 9.5
2017-Aug-23 04:30N 01°14' E 103°32'2 3.1
2017-Aug-23 03:59N 01°14' E 103°30'2 0.8
2017-Aug-23 01:26N 01°15' E 103°28'0 0.3
2017-Aug-23 00:59N 01°15' E 103°28'0 0.0
2017-Aug-23 00:29N 01°15' E 103°28'0 0.0
2017-Aug-22 23:59N 01°15' E 103°28'0 0.0
2017-Aug-22 23:26N 01°15' E 103°28'0 0.0
2017-Aug-22 22:53N 01°15' E 103°28'0 0.0
2017-Aug-22 22:26N 01°15' E 103°28'0 0.0
2017-Aug-22 21:50N 01°15' E 103°28'0 0.0
2017-Aug-22 21:29N 01°15' E 103°28'0 0.0
2017-Aug-22 20:59N 01°15' E 103°28'0 0.0
2017-Aug-22 20:20N 01°15' E 103°28'0 0.0
2017-Aug-22 19:44N 01°15' E 103°28'0 0.0
2017-Aug-22 19:26N 01°15' E 103°28'0 0.0
2017-Aug-22 18:53N 01°15' E 103°28'0 0.4
2017-Aug-22 18:17N 01°15' E 103°29'1 2.7
2017-Aug-22 17:59N 01°15' E 103°29'3 5.6
2017-Aug-22 17:31N 01°14' E 103°32'5 9.6
2017-Aug-22 17:00N 01°19' E 103°33'2 4.3
2017-Aug-22 16:29N 01°21' E 103°33'0 0.0
2017-Aug-22 16:00N 01°21' E 103°33'0 0.1
2017-Aug-22 15:30N 01°21' E 103°33'0 0.1
2017-Aug-22 15:00N 01°21' E 103°33'0 0.1
2017-Aug-22 14:30N 01°21' E 103°33'0 0.1
2017-Aug-22 14:00N 01°21' E 103°33'0 0.1
2017-Aug-22 13:31N 01°21' E 103°33'0 0.0
2017-Aug-22 13:01N 01°21' E 103°33'0 0.1
2017-Aug-22 12:31N 01°21' E 103°33'0 0.0
2017-Aug-22 12:01N 01°21' E 103°33'0 0.0
2017-Aug-22 11:30N 01°21' E 103°33'0 0.1
2017-Aug-22 10:59N 01°21' E 103°33'0 0.1
2017-Aug-22 10:30N 01°21' E 103°33'0 0.1
2017-Aug-22 09:59N 01°21' E 103°33'0 0.1
2017-Aug-22 09:30N 01°21' E 103°33'0 0.0
2017-Aug-22 09:01N 01°21' E 103°33'0 0.0
2017-Aug-22 08:30N 01°21' E 103°33'0 0.0
2017-Aug-22 07:59N 01°21' E 103°33'0 0.1
2017-Aug-22 07:30N 01°21' E 103°33'0 0.1
2017-Aug-22 06:49N 01°21' E 103°33'0 0.2
2017-Aug-22 06:29N 01°21' E 103°33'0 0.0
2017-Aug-22 05:59N 01°21' E 103°33'0 0.0
2017-Aug-22 05:30N 01°21' E 103°33'0 0.0
2017-Aug-22 04:59N 01°21' E 103°33'0 0.1
2017-Aug-22 04:29N 01°21' E 103°33'0 0.1
2017-Aug-22 03:59N 01°21' E 103°33'0 0.0
2017-Aug-22 03:30N 01°21' E 103°33'0 0.0
2017-Aug-22 02:58N 01°21' E 103°33'0 0.0
2017-Aug-22 02:30N 01°21' E 103°33'0 0.1
2017-Aug-22 01:58N 01°21' E 103°33'0 0.1
2017-Aug-22 01:25N 01°21' E 103°33'0 0.0
2017-Aug-22 01:00N 01°21' E 103°33'0 0.1
2017-Aug-22 00:26N 01°21' E 103°33'0 0.0
2017-Aug-22 00:00N 01°21' E 103°33'0 0.1
2017-Aug-21 23:31N 01°21' E 103°33'0 0.0
2017-Aug-21 22:59N 01°21' E 103°33'0 0.0
2017-Aug-21 22:26N 01°21' E 103°33'0 0.1
2017-Aug-21 21:56N 01°21' E 103°33'0 0.0
2017-Aug-21 21:25N 01°21' E 103°33'0 0.1
2017-Aug-21 20:59N 01°21' E 103°33'0 0.0
2017-Aug-21 20:30N 01°21' E 103°33'0 0.1
2017-Aug-21 19:57N 01°21' E 103°33'0 0.1
2017-Aug-21 19:30N 01°21' E 103°33'0 0.0
2017-Aug-21 18:55N 01°21' E 103°33'0 0.0
2017-Aug-21 18:30N 01°21' E 103°33'0 0.0
2017-Aug-21 17:58N 01°21' E 103°33'0 0.0
2017-Aug-21 17:30N 01°21' E 103°33'0 0.0
2017-Aug-21 16:59N 01°21' E 103°33'0 0.0
2017-Aug-21 16:30N 01°21' E 103°33'0 0.0
2017-Aug-21 15:58N 01°21' E 103°33'0 0.1
2017-Aug-21 15:27N 01°21' E 103°33'0 0.0
2017-Aug-21 15:01N 01°21' E 103°33'0 0.0
2017-Aug-21 14:29N 01°21' E 103°33'0 0.0
2017-Aug-21 13:59N 01°21' E 103°33'0 0.1
2017-Aug-21 13:31N 01°21' E 103°33'0 0.0
2017-Aug-21 12:58N 01°21' E 103°33'0 0.0
2017-Aug-21 12:28N 01°21' E 103°33'0 0.0
2017-Aug-21 11:58N 01°21' E 103°33'0 0.0
2017-Aug-21 11:28N 01°21' E 103°33'0 0.0
2017-Aug-21 10:58N 01°21' E 103°33'0 0.0
2017-Aug-21 10:23N 01°21' E 103°33'0 0.0
2017-Aug-21 09:57N 01°21' E 103°33'0 0.0
2017-Aug-21 09:30N 01°21' E 103°33'0 0.0
2017-Aug-21 08:58N 01°21' E 103°33'0 0.0
2017-Aug-21 08:30N 01°21' E 103°33'0 0.0
2017-Aug-21 07:57N 01°21' E 103°33'0 0.0
2017-Aug-21 07:30N 01°21' E 103°33'0 0.0
2017-Aug-21 07:01N 01°21' E 103°33'0 0.1
2017-Aug-21 06:21N 01°21' E 103°33'0 0.0
2017-Aug-21 05:56N 01°21' E 103°33'0 0.1
2017-Aug-21 05:28N 01°21' E 103°33'0 0.1
2017-Aug-21 04:59N 01°21' E 103°33'0 0.1
2017-Aug-21 04:29N 01°21' E 103°33'0 0.1
2017-Aug-21 04:00N 01°21' E 103°33'0 0.1
2017-Aug-21 03:31N 01°21' E 103°33'0 0.0
2017-Aug-21 03:01N 01°21' E 103°33'0 0.0
2017-Aug-21 02:30N 01°21' E 103°33'0 0.0
2017-Aug-21 01:57N 01°21' E 103°33'0 0.0
2017-Aug-21 01:29N 01°21' E 103°33'0 0.0
2017-Aug-21 00:55N 01°21' E 103°33'0 0.0
2017-Aug-21 00:30N 01°21' E 103°33'0 0.0
2017-Aug-21 00:01N 01°21' E 103°33'0 0.0
2017-Aug-20 23:30N 01°21' E 103°33'0 0.0
2017-Aug-20 22:59N 01°21' E 103°33'0 0.0
2017-Aug-20 22:31N 01°21' E 103°33'0 0.0
2017-Aug-20 22:01N 01°21' E 103°33'0 0.0
2017-Aug-20 21:30N 01°21' E 103°33'0 0.0
2017-Aug-20 21:00N 01°21' E 103°33'1 1.5
2017-Aug-20 20:31N 01°20' E 103°33'4 8.7
2017-Aug-20 19:59N 01°16' E 103°33'1 2.6
2017-Aug-20 19:30N 01°15' E 103°33'1 2.2
2017-Aug-20 19:00N 01°15' E 103°35'0 0.0
2017-Aug-20 18:30N 01°15' E 103°35'0 0.0
2017-Aug-20 17:03N 01°15' E 103°35'0 0.0
2017-Aug-20 16:51N 01°15' E 103°35'0 0.1
2017-Aug-20 13:03N 01°15' E 103°35'0 0.1
2017-Aug-20 13:00N 01°15' E 103°35'0 0.1
2017-Aug-20 12:30N 01°15' E 103°35'0 0.1
2017-Aug-20 11:39N 01°15' E 103°35'0 0.0
2017-Aug-20 11:30N 01°15' E 103°35'0 0.1
2017-Aug-20 10:36N 01°15' E 103°35'0 0.2
2017-Aug-20 10:12N 01°15' E 103°35'0 0.0
2017-Aug-20 10:00N 01°15' E 103°35'0 0.1
2017-Aug-20 09:27N 01°15' E 103°34'0 0.0
2017-Aug-20 08:48N 01°15' E 103°34'0 0.0
2017-Aug-20 08:27N 01°15' E 103°34'0 0.1
2017-Aug-20 08:01N 01°15' E 103°34'0 0.0
2017-Aug-20 07:30N 01°15' E 103°34'0 0.1
2017-Aug-20 06:57N 01°15' E 103°34'0 0.0
2017-Aug-20 06:30N 01°15' E 103°34'0 0.0
2017-Aug-20 05:57N 01°15' E 103°34'0 0.1
2017-Aug-20 05:21N 01°15' E 103°34'0 0.1
2017-Aug-20 05:00N 01°15' E 103°34'0 0.2
2017-Aug-20 04:27N 01°15' E 103°35'0 0.1
2017-Aug-20 03:57N 01°15' E 103°35'0 0.0
2017-Aug-20 03:30N 01°15' E 103°35'0 0.1
2017-Aug-20 02:36N 01°15' E 103°35'0 0.0
2017-Aug-20 00:48N 01°15' E 103°35'0 0.1
2017-Aug-20 00:24N 01°15' E 103°35'0 0.1
2017-Aug-19 23:54N 01°15' E 103°35'0 0.2
2017-Aug-19 23:30N 01°15' E 103°35'0 0.1
2017-Aug-19 22:57N 01°15' E 103°35'0 0.2
2017-Aug-19 22:30N 01°15' E 103°34'0 0.2
2017-Aug-19 21:57N 01°15' E 103°34'0 0.1
2017-Aug-19 21:12N 01°15' E 103°34'0 0.1
2017-Aug-19 20:57N 01°15' E 103°34'0 0.2
2017-Aug-19 20:30N 01°15' E 103°34'0 0.1
2017-Aug-19 20:00N 01°15' E 103°35'0 0.1
2017-Aug-19 19:15N 01°15' E 103°35'0 0.0
2017-Aug-19 18:57N 01°15' E 103°35'0 0.0
2017-Aug-19 18:03N 01°15' E 103°35'0 0.0
2017-Aug-19 17:51N 01°15' E 103°35'0 0.0
2017-Aug-19 17:30N 01°15' E 103°35'0 0.0
2017-Aug-19 17:00N 01°15' E 103°35'0 0.0
2017-Aug-19 16:03N 01°15' E 103°35'0 0.0
2017-Aug-19 15:57N 01°15' E 103°35'0 0.2
2017-Aug-19 15:15N 01°15' E 103°35'0 0.1
2017-Aug-19 13:00N 01°15' E 103°35'0 0.0
2017-Aug-19 12:27N 01°15' E 103°35'0 0.1
2017-Aug-19 11:48N 01°15' E 103°35'0 0.0
2017-Aug-19 11:27N 01°15' E 103°35'0 0.0
2017-Aug-19 11:00N 01°15' E 103°35'0 0.0
2017-Aug-19 10:24N 01°15' E 103°35'0 0.0
2017-Aug-19 09:57N 01°15' E 103°35'0 0.1
2017-Aug-19 09:27N 01°15' E 103°35'0 0.1
2017-Aug-19 09:00N 01°15' E 103°35'0 0.1
2017-Aug-19 08:27N 01°15' E 103°34'0 0.0
2017-Aug-19 07:48N 01°15' E 103°34'0 0.0
2017-Aug-19 07:27N 01°15' E 103°34'0 0.1
2017-Aug-19 06:45N 01°15' E 103°34'0 0.0
2017-Aug-19 06:30N 01°15' E 103°34'0 0.0
2017-Aug-19 05:57N 01°15' E 103°34'0 0.0
2017-Aug-19 05:30N 01°15' E 103°34'0 0.0
2017-Aug-19 05:00N 01°15' E 103°34'0 0.0
2017-Aug-19 04:27N 01°15' E 103°34'0 0.0
2017-Aug-19 04:00N 01°15' E 103°34'0 0.1
2017-Aug-19 03:30N 01°15' E 103°34'0 0.2
2017-Aug-19 02:54N 01°15' E 103°35'0 0.2
2017-Aug-19 02:30N 01°15' E 103°35'0 0.1
2017-Aug-19 02:00N 01°15' E 103°35'0 0.1
2017-Aug-19 01:27N 01°15' E 103°35'0 0.1
2017-Aug-19 00:45N 01°15' E 103°35'0 0.0
2017-Aug-19 00:21N 01°15' E 103°35'0 0.2
2017-Aug-19 00:00N 01°15' E 103°35'0 0.0
2017-Aug-18 23:27N 01°15' E 103°35'0 0.1
2017-Aug-18 23:00N 01°15' E 103°35'0 0.1
2017-Aug-18 22:21N 01°15' E 103°35'0 0.0
2017-Aug-18 21:57N 01°15' E 103°35'0 0.1
2017-Aug-18 21:27N 01°15' E 103°34'0 0.0
2017-Aug-18 20:57N 01°15' E 103°34'0 0.0
2017-Aug-18 20:30N 01°15' E 103°34'0 0.0
2017-Aug-18 19:36N 01°15' E 103°34'0 0.1
2017-Aug-18 19:18N 01°15' E 103°34'0 0.2
2017-Aug-18 18:45N 01°15' E 103°34'0 0.3
2017-Aug-18 18:30N 01°15' E 103°34'0 0.1
2017-Aug-18 17:57N 01°15' E 103°34'0 0.1
2017-Aug-18 17:30N 01°15' E 103°34'0 0.1
2017-Aug-18 16:54N 01°15' E 103°35'0 0.0
2017-Aug-18 16:27N 01°15' E 103°35'0 0.1
2017-Aug-18 15:51N 01°15' E 103°35'0 0.1
2017-Aug-18 15:30N 01°15' E 103°35'0 0.1
2017-Aug-18 10:06N 01°15' E 103°35'0 0.0
2017-Aug-18 09:45N 01°15' E 103°35'0 0.0
2017-Aug-18 09:27N 01°15' E 103°35'0 0.0
2017-Aug-18 08:51N 01°15' E 103°35'0 0.1
2017-Aug-18 08:24N 01°15' E 103°35'0 0.1
2017-Aug-18 07:33N 01°15' E 103°35'0 0.1
2017-Aug-18 06:21N 01°15' E 103°34'0 0.1
2017-Aug-18 05:51N 01°15' E 103°34'0 0.0
2017-Aug-18 05:18N 01°15' E 103°34'0 0.0
2017-Aug-18 04:57N 01°15' E 103°34'0 0.0
2017-Aug-18 04:30N 01°15' E 103°34'0 0.0
2017-Aug-18 03:57N 01°15' E 103°34'0 0.1
2017-Aug-17 23:27N 01°15' E 103°34'0 0.2
2017-Aug-17 22:57N 01°15' E 103°34'0 0.1
2017-Aug-17 22:06N 01°15' E 103°34'0 0.0
2017-Aug-17 21:54N 01°15' E 103°34'0 0.0
2017-Aug-17 21:27N 01°15' E 103°34'0 0.1
2017-Aug-17 20:57N 01°15' E 103°34'0 0.1
2017-Aug-17 20:27N 01°15' E 103°34'0 0.0
2017-Aug-17 19:57N 01°15' E 103°34'0 0.1
2017-Aug-17 19:27N 01°15' E 103°34'0 0.0
2017-Aug-17 18:57N 01°15' E 103°34'0 0.2
2017-Aug-17 18:27N 01°15' E 103°34'0 0.0
2017-Aug-17 17:54N 01°15' E 103°34'0 0.1
2017-Aug-17 17:27N 01°15' E 103°34'1 2.7
2017-Aug-17 17:00N 01°13' E 103°34'3 6.0
2017-Aug-17 16:30N 01°12' E 103°37'510.9
2017-Aug-17 16:00N 01°10' E 103°42'4 8.7
2017-Aug-17 15:30N 01°09' E 103°46'4 8.9
2017-Aug-17 15:00N 01°11' E 103°50'3 6.6
2017-Aug-17 14:30N 01°13' E 103°53'3 5.2
2017-Aug-17 14:00N 01°15' E 103°55'0 0.3
2017-Aug-17 13:16N 01°15' E 103°55'0 0.0
2017-Aug-17 12:58N 01°15' E 103°55'0 0.0
2017-Aug-17 12:28N 01°15' E 103°55'0 0.0
2017-Aug-17 11:58N 01°15' E 103°55'0 0.0
2017-Aug-17 11:25N 01°15' E 103°55'0 0.1
2017-Aug-17 10:46N 01°15' E 103°55'0 0.2
2017-Aug-17 10:22N 01°15' E 103°55'0 0.1
2017-Aug-17 09:55N 01°15' E 103°55'0 0.2
2017-Aug-17 09:25N 01°15' E 103°55'0 0.0
2017-Aug-17 08:55N 01°15' E 103°55'0 0.0
2017-Aug-17 08:19N 01°15' E 103°55'0 0.0
2017-Aug-17 05:55N 01°15' E 103°55'0 0.1
2017-Aug-17 04:32N 01°15' E 103°54'0 0.4
2017-Aug-17 04:30N 01°15' E 103°54'2 2.9
2017-Aug-17 03:59N 01°15' E 103°56'3 5.1
2017-Aug-17 03:28N 01°15' E 103°59'2 5.0
2017-Aug-17 03:00N 01°14' E 103°57'4 8.9
2017-Aug-17 02:30N 01°12' E 103°53'5 9.5
2017-Aug-17 02:00N 01°10' E 103°49'4 8.3
2017-Aug-17 01:30N 01°07' E 103°45'4 8.5
2017-Aug-17 01:00N 01°04' E 103°42'4 8.2
2017-Aug-17 00:30N 01°03' E 103°38'510.0
2017-Aug-17 00:00N 01°05' E 103°34'510.2
2017-Aug-16 23:28N 01°08' E 103°30'611.9
2017-Aug-16 23:00N 01°12' E 103°25'  

Dump ship's entire track history